sensor_id;sensor_type;location;lat;lon;timestamp;pressure;altitude;pressure_sealevel;temperature;humidity
50550;BME280;36505;52.512;13.460;2024-02-21T00:00:51;101561.91;;;8.68;88.16
50550;BME280;36505;52.512;13.460;2024-02-21T00:03:17;101563.78;;;8.67;88.30
50550;BME280;36505;52.512;13.460;2024-02-21T00:05:43;101556.69;;;8.66;88.38
50550;BME280;36505;52.512;13.460;2024-02-21T00:08:08;101552.47;;;8.64;88.30
50550;BME280;36505;52.512;13.460;2024-02-21T00:10:33;101561.69;;;8.69;88.27
50550;BME280;36505;52.512;13.460;2024-02-21T00:13:00;101563.59;;;8.69;88.34
50550;BME280;36505;52.512;13.460;2024-02-21T00:15:26;101558.13;;;8.69;88.22
50550;BME280;36505;52.512;13.460;2024-02-21T00:17:51;101544.91;;;8.66;88.29
50550;BME280;36505;52.512;13.460;2024-02-21T00:20:17;101549.09;;;8.68;88.24
50550;BME280;36505;52.512;13.460;2024-02-21T00:22:43;101546.38;;;8.68;88.00
50550;BME280;36505;52.512;13.460;2024-02-21T00:25:08;101543.63;;;8.68;87.93
50550;BME280;36505;52.512;13.460;2024-02-21T00:27:34;101541.75;;;8.69;88.27
50550;BME280;36505;52.512;13.460;2024-02-21T00:29:59;101545.31;;;8.69;88.02
50550;BME280;36505;52.512;13.460;2024-02-21T00:32:24;101539.03;;;8.69;87.98
50550;BME280;36505;52.512;13.460;2024-02-21T00:34:50;101531.66;;;8.69;88.17
50550;BME280;36505;52.512;13.460;2024-02-21T00:37:15;101537.34;;;8.68;88.09
50550;BME280;36505;52.512;13.460;2024-02-21T00:39:40;101532.72;;;8.68;88.14
50550;BME280;36505;52.512;13.460;2024-02-21T00:42:07;101529.78;;;8.70;88.21
50550;BME280;36505;52.512;13.460;2024-02-21T00:44:33;101533.34;;;8.70;88.07
50550;BME280;36505;52.512;13.460;2024-02-21T00:46:58;101528.94;;;8.69;88.20
50550;BME280;36505;52.512;13.460;2024-02-21T00:49:24;101529.78;;;8.70;88.22
50550;BME280;36505;52.512;13.460;2024-02-21T00:51:49;101521.59;;;8.70;88.18
50550;BME280;36505;52.512;13.460;2024-02-21T00:54:14;101525.38;;;8.69;87.96
50550;BME280;36505;52.512;13.460;2024-02-21T00:56:41;101518.22;;;8.68;88.09
50550;BME280;36505;52.512;13.460;2024-02-21T00:59:06;101517.38;;;8.67;88.25
50550;BME280;36505;52.512;13.460;2024-02-21T01:01:32;101522.63;;;8.69;88.28
50550;BME280;36505;52.512;13.460;2024-02-21T01:03:57;101510.03;;;8.68;88.28
50550;BME280;36505;52.512;13.460;2024-02-21T01:06:22;101509.81;;;8.69;88.13
50550;BME280;36505;52.512;13.460;2024-02-21T01:08:48;101502.69;;;8.68;88.21
50550;BME280;36505;52.512;13.460;2024-02-21T01:11:15;101502.06;;;8.66;88.03
50550;BME280;36505;52.512;13.460;2024-02-21T01:13:40;101499.94;;;8.68;87.96
50550;BME280;36505;52.512;13.460;2024-02-21T01:16:06;101499.94;;;8.68;88.25
50550;BME280;36505;52.512;13.460;2024-02-21T01:18:33;101496.16;;;8.69;87.76
50550;BME280;36505;52.512;13.460;2024-02-21T01:20:58;101498.06;;;8.69;87.84
50550;BME280;36505;52.512;13.460;2024-02-21T01:23:24;101492.59;;;8.69;87.76
50550;BME280;36505;52.512;13.460;2024-02-21T01:25:49;101499.94;;;8.68;87.75
50550;BME280;36505;52.512;13.460;2024-02-21T01:28:15;101498.06;;;8.69;88.11
50550;BME280;36505;52.512;13.460;2024-02-21T01:30:40;101494.50;;;8.68;88.01
50550;BME280;36505;52.512;13.460;2024-02-21T01:33:05;101492.59;;;8.69;88.02
50550;BME280;36505;52.512;13.460;2024-02-21T01:35:31;101483.38;;;8.70;87.96
50550;BME280;36505;52.512;13.460;2024-02-21T01:37:56;101485.25;;;8.69;87.94
50550;BME280;36505;52.512;13.460;2024-02-21T01:40:21;101482.31;;;8.71;87.89
50550;BME280;36505;52.512;13.460;2024-02-21T01:42:47;101484.19;;;8.70;87.89
50550;BME280;36505;52.512;13.460;2024-02-21T01:45:13;101479.59;;;8.71;88.21
50550;BME280;36505;52.512;13.460;2024-02-21T01:47:39;101484.00;;;8.72;87.73
50550;BME280;36505;52.512;13.460;2024-02-21T01:50:05;101482.31;;;8.71;87.82
50550;BME280;36505;52.512;13.460;2024-02-21T01:52:32;101480.44;;;8.71;87.99
50550;BME280;36505;52.512;13.460;2024-02-21T01:54:59;101471.38;;;8.71;87.92
50550;BME280;36505;52.512;13.460;2024-02-21T01:57:25;101467.63;;;8.72;87.62
50550;BME280;36505;52.512;13.460;2024-02-21T01:59:52;101463.84;;;8.73;87.42
50550;BME280;36505;52.512;13.460;2024-02-21T02:02:17;101470.94;;;8.74;87.21
50550;BME280;36505;52.512;13.460;2024-02-21T02:04:44;101461.09;;;8.73;86.99
50550;BME280;36505;52.512;13.460;2024-02-21T02:07:10;101463.00;;;8.73;87.20
50550;BME280;36505;52.512;13.460;2024-02-21T02:09:36;101462.16;;;8.72;87.16
50550;BME280;36505;52.512;13.460;2024-02-21T02:12:02;101461.53;;;8.70;87.20
50550;BME280;36505;52.512;13.460;2024-02-21T02:14:27;101447.44;;;8.73;87.35
50550;BME280;36505;52.512;13.460;2024-02-21T02:16:52;101451.22;;;8.72;87.32
50550;BME280;36505;52.512;13.460;2024-02-21T02:19:18;101443.03;;;8.72;87.42
50550;BME280;36505;52.512;13.460;2024-02-21T02:21:46;101448.25;;;8.73;87.27
50550;BME280;36505;52.512;13.460;2024-02-21T02:24:19;101447.44;;;8.73;86.97
50550;BME280;36505;52.512;13.460;2024-02-21T02:26:45;101430.00;;;8.74;87.09
50550;BME280;36505;52.512;13.460;2024-02-21T02:29:11;101433.81;;;8.73;87.01
50550;BME280;36505;52.512;13.460;2024-02-21T02:31:36;101440.06;;;8.73;87.29
50550;BME280;36505;52.512;13.460;2024-02-21T02:34:03;101426.03;;;8.70;87.60
50550;BME280;36505;52.512;13.460;2024-02-21T02:36:32;101426.03;;;8.70;87.67
50550;BME280;36505;52.512;13.460;2024-02-21T02:38:57;101424.13;;;8.70;87.57
50550;BME280;36505;52.512;13.460;2024-02-21T02:41:23;101417.84;;;8.70;87.68
50550;BME280;36505;52.512;13.460;2024-02-21T02:43:48;101418.03;;;8.68;87.78
50550;BME280;36505;52.512;13.460;2024-02-21T02:46:13;101418.88;;;8.69;87.74
50550;BME280;36505;52.512;13.460;2024-02-21T02:48:39;101422.66;;;8.68;87.98
50550;BME280;36505;52.512;13.460;2024-02-21T02:51:04;101426.44;;;8.67;88.24
50550;BME280;36505;52.512;13.460;2024-02-21T02:53:29;101413.88;;;8.66;88.51
50550;BME280;36505;52.512;13.460;2024-02-21T02:55:55;101418.50;;;8.65;88.47
50550;BME280;36505;52.512;13.460;2024-02-21T02:58:21;101412.19;;;8.65;88.37
50550;BME280;36505;52.512;13.460;2024-02-21T03:00:46;101403.16;;;8.64;88.43
50550;BME280;36505;52.512;13.460;2024-02-21T03:03:11;101403.16;;;8.64;89.02
50550;BME280;36505;52.512;13.460;2024-02-21T03:05:37;101399.59;;;8.64;89.06
50550;BME280;36505;52.512;13.460;2024-02-21T03:08:02;101394.13;;;8.64;88.90
50550;BME280;36505;52.512;13.460;2024-02-21T03:10:34;101378.78;;;8.63;89.26
50550;BME280;36505;52.512;13.460;2024-02-21T03:13:00;101389.72;;;8.63;89.76
50550;BME280;36505;52.512;13.460;2024-02-21T03:15:25;101387.19;;;8.61;90.06
50550;BME280;36505;52.512;13.460;2024-02-21T03:17:51;101374.59;;;8.60;90.52
50550;BME280;36505;52.512;13.460;2024-02-21T03:20:16;101380.91;;;8.61;90.18
50550;BME280;36505;52.512;13.460;2024-02-21T03:22:42;101374.59;;;8.60;90.33
50550;BME280;36505;52.512;13.460;2024-02-21T03:25:08;101362.84;;;8.60;90.48
50550;BME280;36505;52.512;13.460;2024-02-21T03:27:35;101362.84;;;8.60;90.88
50550;BME280;36505;52.512;13.460;2024-02-21T03:30:00;101375.69;;;8.59;90.63
50550;BME280;36505;52.512;13.460;2024-02-21T03:32:26;101377.56;;;8.59;90.56
50550;BME280;36505;52.512;13.460;2024-02-21T03:34:52;101368.53;;;8.58;91.18
50550;BME280;36505;52.512;13.460;2024-02-21T03:37:17;101372.31;;;8.57;91.15
50550;BME280;36505;52.512;13.460;2024-02-21T03:39:43;101371.28;;;8.58;91.09
50550;BME280;36505;52.512;13.460;2024-02-21T03:42:09;101376.94;;;8.57;91.32
50550;BME280;36505;52.512;13.460;2024-02-21T03:44:34;101364.34;;;8.56;90.99
50550;BME280;36505;52.512;13.460;2024-02-21T03:47:00;101367.06;;;8.56;91.37
50550;BME280;36505;52.512;13.460;2024-02-21T03:49:26;101363.50;;;8.55;92.60
50550;BME280;36505;52.512;13.460;2024-02-21T03:51:51;101361.59;;;8.56;92.35
50550;BME280;36505;52.512;13.460;2024-02-21T03:54:17;101346.28;;;8.55;92.28
50550;BME280;36505;52.512;13.460;2024-02-21T03:56:43;101351.72;;;8.55;92.47
50550;BME280;36505;52.512;13.460;2024-02-21T03:59:08;101346.72;;;8.52;91.95
50550;BME280;36505;52.512;13.460;2024-02-21T04:01:34;101341.28;;;8.52;92.79
50550;BME280;36505;52.512;13.460;2024-02-21T04:04:00;101329.72;;;8.50;92.19
50550;BME280;36505;52.512;13.460;2024-02-21T04:06:26;101342.31;;;8.51;92.87
50550;BME280;36505;52.512;13.460;2024-02-21T04:08:51;101342.31;;;8.51;92.77
50550;BME280;36505;52.512;13.460;2024-02-21T04:11:16;101334.13;;;8.51;92.55
50550;BME280;36505;52.512;13.460;2024-02-21T04:13:44;101326.16;;;8.49;92.78
50550;BME280;36505;52.512;13.460;2024-02-21T04:16:09;101328.03;;;8.49;93.03
50550;BME280;36505;52.512;13.460;2024-02-21T04:18:35;101327.19;;;8.48;93.29
50550;BME280;36505;52.512;13.460;2024-02-21T04:21:00;101319.22;;;8.47;92.96
50550;BME280;36505;52.512;13.460;2024-02-21T04:23:25;101314.59;;;8.47;92.84
50550;BME280;36505;52.512;13.460;2024-02-21T04:25:51;101303.69;;;8.47;92.98
50550;BME280;36505;52.512;13.460;2024-02-21T04:28:17;101300.56;;;8.44;92.53
50550;BME280;36505;52.512;13.460;2024-02-21T04:30:42;101304.53;;;8.48;93.35
50550;BME280;36505;52.512;13.460;2024-02-21T04:33:08;101290.88;;;8.48;93.63
50550;BME280;36505;52.512;13.460;2024-02-21T04:35:36;101283.16;;;8.45;93.81
50550;BME280;36505;52.512;13.460;2024-02-21T04:38:01;101278.53;;;8.45;93.26
50550;BME280;36505;52.512;13.460;2024-02-21T04:40:26;101267.81;;;8.44;93.48
50550;BME280;36505;52.512;13.460;2024-02-21T04:42:52;101260.47;;;8.44;93.75
50550;BME280;36505;52.512;13.460;2024-02-21T04:45:17;101260.69;;;8.43;93.40
50550;BME280;36505;52.512;13.460;2024-02-21T04:47:43;101256.28;;;8.42;93.55
50550;BME280;36505;52.512;13.460;2024-02-21T04:50:08;101255.22;;;8.43;93.91
50550;BME280;36505;52.512;13.460;2024-02-21T04:52:34;101252.72;;;8.41;93.69
50550;BME280;36505;52.512;13.460;2024-02-21T04:54:59;101253.75;;;8.40;93.72
50550;BME280;36505;52.512;13.460;2024-02-21T04:57:24;101258.38;;;8.40;93.75
50550;BME280;36505;52.512;13.460;2024-02-21T04:59:50;101251.28;;;8.39;93.74
50550;BME280;36505;52.512;13.460;2024-02-21T05:02:15;101241.63;;;8.36;94.09
50550;BME280;36505;52.512;13.460;2024-02-21T05:04:42;101246.03;;;8.37;94.09
50550;BME280;36505;52.512;13.460;2024-02-21T05:07:08;101237.00;;;8.37;94.56
50550;BME280;36505;52.512;13.460;2024-02-21T05:09:33;101238.47;;;8.39;94.54
50550;BME280;36505;52.512;13.460;2024-02-21T05:11:59;101235.72;;;8.39;94.28
50550;BME280;36505;52.512;13.460;2024-02-21T05:14:25;101238.47;;;8.39;94.07
50550;BME280;36505;52.512;13.460;2024-02-21T05:16:52;101247.47;;;8.40;94.71
50550;BME280;36505;52.512;13.460;2024-02-21T05:19:17;101236.53;;;8.40;94.50
50550;BME280;36505;52.512;13.460;2024-02-21T05:21:42;101248.28;;;8.40;94.49
50550;BME280;36505;52.512;13.460;2024-02-21T05:24:08;101235.72;;;8.39;94.34
50550;BME280;36505;52.512;13.460;2024-02-21T05:26:33;101241.19;;;8.39;94.25
50550;BME280;36505;52.512;13.460;2024-02-21T05:28:58;101236.78;;;8.38;94.09
50550;BME280;36505;52.512;13.460;2024-02-21T05:31:25;101231.75;;;8.35;93.96
50550;BME280;36505;52.512;13.460;2024-02-21T05:33:50;101233.81;;;8.40;94.73
50550;BME280;36505;52.512;13.460;2024-02-21T05:36:16;101240.94;;;8.41;94.92
50550;BME280;36505;52.512;13.460;2024-02-21T05:38:41;101232.75;;;8.41;94.91
50550;BME280;36505;52.512;13.460;2024-02-21T05:41:06;101235.09;;;8.37;94.76
50550;BME280;36505;52.512;13.460;2024-02-21T05:43:32;101240.34;;;8.39;95.09
50550;BME280;36505;52.512;13.460;2024-02-21T05:45:57;101240.09;;;8.40;94.76
50550;BME280;36505;52.512;13.460;2024-02-21T05:48:23;101226.72;;;8.39;94.54
50550;BME280;36505;52.512;13.460;2024-02-21T05:50:49;101229.66;;;8.37;94.89
50550;BME280;36505;52.512;13.460;2024-02-21T05:53:14;101240.09;;;8.40;94.99
50550;BME280;36505;52.512;13.460;2024-02-21T05:55:40;101237.38;;;8.40;94.48
50550;BME280;36505;52.512;13.460;2024-02-21T05:58:06;101230.03;;;8.41;95.10
50550;BME280;36505;52.512;13.460;2024-02-21T06:00:32;101222.91;;;8.40;94.85
50550;BME280;36505;52.512;13.460;2024-02-21T06:02:57;101223.72;;;8.40;95.08
50550;BME280;36505;52.512;13.460;2024-02-21T06:05:23;101223.72;;;8.40;95.29
50550;BME280;36505;52.512;13.460;2024-02-21T06:07:48;101217.44;;;8.40;95.05
50550;BME280;36505;52.512;13.460;2024-02-21T06:10:14;101216.38;;;8.41;94.80
50550;BME280;36505;52.512;13.460;2024-02-21T06:12:39;101217.44;;;8.40;94.75
50550;BME280;36505;52.512;13.460;2024-02-21T06:15:05;101213.91;;;8.39;94.94
50550;BME280;36505;52.512;13.460;2024-02-21T06:17:31;101211.19;;;8.39;95.31
50550;BME280;36505;52.512;13.460;2024-02-21T06:19:56;101206.53;;;8.40;95.20
50550;BME280;36505;52.512;13.460;2024-02-21T06:22:21;101206.53;;;8.40;95.41
50550;BME280;36505;52.512;13.460;2024-02-21T06:24:47;101203.78;;;8.40;95.48
50550;BME280;36505;52.512;13.460;2024-02-21T06:27:12;101200.00;;;8.41;95.67
50550;BME280;36505;52.512;13.460;2024-02-21T06:29:39;101210.09;;;8.40;95.29
50550;BME280;36505;52.512;13.460;2024-02-21T06:32:05;101210.34;;;8.39;95.08
50550;BME280;36505;52.512;13.460;2024-02-21T06:34:31;101212.22;;;8.38;95.59
50550;BME280;36505;52.512;13.460;2024-02-21T06:36:56;101209.50;;;8.38;95.45
50550;BME280;36505;52.512;13.460;2024-02-21T06:39:22;101205.72;;;8.39;95.66
50550;BME280;36505;52.512;13.460;2024-02-21T06:41:48;101207.38;;;8.40;95.60
50550;BME280;36505;52.512;13.460;2024-02-21T06:44:18;101210.09;;;8.40;95.64
50550;BME280;36505;52.512;13.460;2024-02-21T06:46:44;101213.66;;;8.41;95.69
50550;BME280;36505;52.512;13.460;2024-02-21T06:49:09;101204.63;;;8.40;96.20
50550;BME280;36505;52.512;13.460;2024-02-21T06:51:41;101210.09;;;8.40;96.59
50550;BME280;36505;52.512;13.460;2024-02-21T06:54:06;101207.16;;;8.42;96.55
50550;BME280;36505;52.512;13.460;2024-02-21T06:56:32;101213.03;;;8.45;96.54
50550;BME280;36505;52.512;13.460;2024-02-21T06:58:57;101211.94;;;8.46;96.47
50550;BME280;36505;52.512;13.460;2024-02-21T07:01:26;101213.63;;;8.47;96.12
50550;BME280;36505;52.512;13.460;2024-02-21T07:03:51;101211.72;;;8.48;95.75
50550;BME280;36505;52.512;13.460;2024-02-21T07:06:16;101214.91;;;8.45;96.13
50550;BME280;36505;52.512;13.460;2024-02-21T07:08:42;101215.28;;;8.48;96.30
50550;BME280;36505;52.512;13.460;2024-02-21T07:11:07;101221.81;;;8.47;95.92
50550;BME280;36505;52.512;13.460;2024-02-21T07:13:33;101212.78;;;8.47;96.10
50550;BME280;36505;52.512;13.460;2024-02-21T07:15:58;101213.63;;;8.47;95.91
50550;BME280;36505;52.512;13.460;2024-02-21T07:18:24;101221.59;;;8.49;96.17
50550;BME280;36505;52.512;13.460;2024-02-21T07:20:51;101216.97;;;8.49;96.46
50550;BME280;36505;52.512;13.460;2024-02-21T07:23:17;101223.28;;;8.50;96.35
50550;BME280;36505;52.512;13.460;2024-02-21T07:25:42;101221.16;;;8.52;96.15
50550;BME280;36505;52.512;13.460;2024-02-21T07:28:07;101215.72;;;8.52;96.29
50550;BME280;36505;52.512;13.460;2024-02-21T07:30:33;101206.47;;;8.53;95.91
50550;BME280;36505;52.512;13.460;2024-02-21T07:32:59;101211.94;;;8.53;96.16
50550;BME280;36505;52.512;13.460;2024-02-21T07:35:24;101212.53;;;8.55;96.40
50550;BME280;36505;52.512;13.460;2024-02-21T07:37:50;101206.00;;;8.56;96.10
50550;BME280;36505;52.512;13.460;2024-02-21T07:40:16;101205.81;;;8.57;96.47
50550;BME280;36505;52.512;13.460;2024-02-21T07:42:42;101208.31;;;8.59;96.28
50550;BME280;36505;52.512;13.460;2024-02-21T07:45:08;101207.22;;;8.60;96.28
50550;BME280;36505;52.512;13.460;2024-02-21T07:47:34;101214.16;;;8.62;96.29
50550;BME280;36505;52.512;13.460;2024-02-21T07:50:00;101208.50;;;8.64;96.69
50550;BME280;36505;52.512;13.460;2024-02-21T07:52:25;101209.13;;;8.66;96.36
50550;BME280;36505;52.512;13.460;2024-02-21T07:54:51;101207.22;;;8.66;96.31
50550;BME280;36505;52.512;13.460;2024-02-21T07:57:16;101211.38;;;8.69;96.11
50550;BME280;36505;52.512;13.460;2024-02-21T07:59:42;101203.41;;;8.67;96.22
50550;BME280;36505;52.512;13.460;2024-02-21T08:02:07;101205.94;;;8.69;96.17
50550;BME280;36505;52.512;13.460;2024-02-21T08:04:33;101196.50;;;8.65;95.72
50550;BME280;36505;52.512;13.460;2024-02-21T08:06:58;101204.66;;;8.71;96.01
50550;BME280;36505;52.512;13.460;2024-02-21T08:09:29;101194.56;;;8.72;95.78
50550;BME280;36505;52.512;13.460;2024-02-21T08:11:55;101198.16;;;8.73;95.83
50550;BME280;36505;52.512;13.460;2024-02-21T08:14:21;101195.16;;;8.74;95.51
50550;BME280;36505;52.512;13.460;2024-02-21T08:16:47;101193.28;;;8.75;95.50
50550;BME280;36505;52.512;13.460;2024-02-21T08:19:12;101194.94;;;8.76;95.37
50550;BME280;36505;52.512;13.460;2024-02-21T08:21:37;101192.00;;;8.77;95.16
50550;BME280;36505;52.512;13.460;2024-02-21T08:24:03;101190.94;;;8.78;95.30
50550;BME280;36505;52.512;13.460;2024-02-21T08:26:28;101195.38;;;8.79;95.35
50550;BME280;36505;52.512;13.460;2024-02-21T08:28:56;101204.16;;;8.81;95.45
50550;BME280;36505;52.512;13.460;2024-02-21T08:31:25;101194.31;;;8.80;95.47
50550;BME280;36505;52.512;13.460;2024-02-21T08:33:58;101190.06;;;8.84;95.29
50550;BME280;36505;52.512;13.460;2024-02-21T08:36:33;101187.13;;;8.86;95.32
50550;BME280;36505;52.512;13.460;2024-02-21T08:38:59;101192.13;;;8.89;95.41
50550;BME280;36505;52.512;13.460;2024-02-21T08:41:25;101187.06;;;8.92;95.24
50550;BME280;36505;52.512;13.460;2024-02-21T08:43:51;101184.91;;;8.94;95.09
50550;BME280;36505;52.512;13.460;2024-02-21T08:46:22;101187.22;;;8.97;94.49
50550;BME280;36505;52.512;13.460;2024-02-21T08:48:49;101194.75;;;9.02;94.70
50550;BME280;36505;52.512;13.460;2024-02-21T08:51:15;101191.78;;;9.03;94.49
50550;BME280;36505;52.512;13.460;2024-02-21T08:53:40;101186.53;;;9.02;94.17
50550;BME280;36505;52.512;13.460;2024-02-21T08:56:06;101186.72;;;9.07;94.26
50550;BME280;36505;52.512;13.460;2024-02-21T08:58:35;101184.84;;;9.07;94.19
50550;BME280;36505;52.512;13.460;2024-02-21T09:01:02;101189.63;;;9.12;94.15
50550;BME280;36505;52.512;13.460;2024-02-21T09:03:30;101191.88;;;9.15;94.44
50550;BME280;36505;52.512;13.460;2024-02-21T09:05:55;101193.13;;;9.19;94.28
50550;BME280;36505;52.512;13.460;2024-02-21T09:08:21;101196.22;;;9.23;93.93
50550;BME280;36505;52.512;13.460;2024-02-21T09:10:47;101196.00;;;9.24;93.35
50550;BME280;36505;52.512;13.460;2024-02-21T09:13:13;101189.03;;;9.28;93.87
50550;BME280;36505;52.512;13.460;2024-02-21T09:15:38;101195.72;;;9.32;93.83
50550;BME280;36505;52.512;13.460;2024-02-21T09:18:03;101182.28;;;9.31;93.59
50550;BME280;36505;52.512;13.460;2024-02-21T09:20:29;101186.00;;;9.36;93.09
50550;BME280;36505;52.512;13.460;2024-02-21T09:22:54;101180.94;;;9.40;93.73
50550;BME280;36505;52.512;13.460;2024-02-21T09:25:20;101181.31;;;9.43;93.89
50550;BME280;36505;52.512;13.460;2024-02-21T09:27:45;101175.00;;;9.43;93.72
50550;BME280;36505;52.512;13.460;2024-02-21T09:30:11;101182.06;;;9.50;93.39
50550;BME280;36505;52.512;13.460;2024-02-21T09:32:37;101175.69;;;9.57;93.76
50550;BME280;36505;52.512;13.460;2024-02-21T09:35:03;101173.38;;;9.60;93.16
50550;BME280;36505;52.512;13.460;2024-02-21T09:37:28;101172.66;;;9.65;92.66
50550;BME280;36505;52.512;13.460;2024-02-21T09:39:54;101174.72;;;9.69;93.31
50550;BME280;36505;52.512;13.460;2024-02-21T09:42:27;101161.03;;;9.69;93.03
50550;BME280;36505;52.512;13.460;2024-02-21T09:44:56;101165.38;;;9.77;91.77
50550;BME280;36505;52.512;13.460;2024-02-21T09:47:44;101167.44;;;9.81;92.50
50550;BME280;36505;52.512;13.460;2024-02-21T09:50:14;101146.22;;;9.77;93.07
50550;BME280;36505;52.512;13.460;2024-02-21T09:52:40;101161.19;;;9.93;93.40
50550;BME280;36505;52.512;13.460;2024-02-21T09:55:07;101157.75;;;9.97;93.33
50550;BME280;36505;52.512;13.460;2024-02-21T09:57:36;101165.03;;;10.03;93.19
50550;BME280;36505;52.512;13.460;2024-02-21T10:00:04;101155.41;;;10.01;93.60
50550;BME280;36505;52.512;13.460;2024-02-21T10:02:32;101168.28;;;10.12;93.67
50550;BME280;36505;52.512;13.460;2024-02-21T10:04:58;101171.19;;;10.17;92.17
50550;BME280;36505;52.512;13.460;2024-02-21T10:07:24;101173.47;;;10.20;92.46
50550;BME280;36505;52.512;13.460;2024-02-21T10:10:00;101170.28;;;10.23;91.82
50550;BME280;36505;52.512;13.460;2024-02-21T10:12:26;101173.38;;;10.26;92.88
50550;BME280;36505;52.512;13.460;2024-02-21T10:15:00;101166.13;;;10.32;92.55
50550;BME280;36505;52.512;13.460;2024-02-21T10:17:26;101163.41;;;10.32;89.40
50550;BME280;36505;52.512;13.460;2024-02-21T10:19:51;101160.44;;;10.34;88.71
50550;BME280;36505;52.512;13.460;2024-02-21T10:22:17;101164.84;;;10.35;88.06
50550;BME280;36505;52.512;13.460;2024-02-21T10:24:42;101170.31;;;10.35;88.09
50550;BME280;36505;52.512;13.460;2024-02-21T10:27:09;101174.75;;;10.36;87.19
50550;BME280;36505;52.512;13.460;2024-02-21T10:29:36;101174.13;;;10.34;88.25
50550;BME280;36505;52.512;13.460;2024-02-21T10:32:08;101166.31;;;10.37;88.49
50550;BME280;36505;52.512;13.460;2024-02-21T10:34:34;101167.94;;;10.38;88.46
50550;BME280;36505;52.512;13.460;2024-02-21T10:37:04;101171.53;;;10.39;86.92
50550;BME280;36505;52.512;13.460;2024-02-21T10:39:35;101165.47;;;10.37;86.64
50550;BME280;36505;52.512;13.460;2024-02-21T10:42:01;101162.47;;;10.38;86.65
50550;BME280;36505;52.512;13.460;2024-02-21T10:44:29;101166.44;;;10.42;87.22
50550;BME280;36505;52.512;13.460;2024-02-21T10:46:57;101158.00;;;10.44;87.00
50550;BME280;36505;52.512;13.460;2024-02-21T10:49:24;101160.25;;;10.47;86.51
50550;BME280;36505;52.512;13.460;2024-02-21T10:52:13;101142.38;;;10.44;86.72
50550;BME280;36505;52.512;13.460;2024-02-21T10:54:39;101147.28;;;10.54;86.34
50550;BME280;36505;52.512;13.460;2024-02-21T10:57:08;101139.47;;;10.57;88.15
50550;BME280;36505;52.512;13.460;2024-02-21T10:59:37;101149.91;;;10.60;86.86
50550;BME280;36505;52.512;13.460;2024-02-21T11:02:03;101151.59;;;10.61;87.37
50550;BME280;36505;52.512;13.460;2024-02-21T11:04:28;101149.47;;;10.63;87.10
50550;BME280;36505;52.512;13.460;2024-02-21T11:06:55;101152.19;;;10.63;87.25
50550;BME280;36505;52.512;13.460;2024-02-21T11:09:30;101145.63;;;10.64;86.51
50550;BME280;36505;52.512;13.460;2024-02-21T11:11:57;101131.13;;;10.64;86.57
50550;BME280;36505;52.512;13.460;2024-02-21T11:14:26;101133.59;;;10.65;86.04
50550;BME280;36505;52.512;13.460;2024-02-21T11:16:52;101117.56;;;10.69;87.31
50550;BME280;36505;52.512;13.460;2024-02-21T11:19:22;101121.25;;;10.75;86.94
50550;BME280;36505;52.512;13.460;2024-02-21T11:21:48;101112.34;;;10.91;88.92
50550;BME280;36505;52.512;13.460;2024-02-21T11:24:34;101106.97;;;11.07;91.26
50550;BME280;36505;52.512;13.460;2024-02-21T11:29:43;101083.00;;;11.38;92.16
50550;BME280;36505;52.512;13.460;2024-02-21T11:32:17;101074.97;;;11.48;91.07
50550;BME280;36505;52.512;13.460;2024-02-21T11:34:57;101081.75;;;11.57;90.48
50550;BME280;36505;52.512;13.460;2024-02-21T11:37:32;101079.19;;;11.67;89.47
50550;BME280;36505;52.512;13.460;2024-02-21T11:39:59;101063.69;;;11.73;90.30
50550;BME280;36505;52.512;13.460;2024-02-21T11:42:26;101074.88;;;11.83;90.89
50550;BME280;36505;52.512;13.460;2024-02-21T11:44:53;101065.75;;;11.94;90.93
50550;BME280;36505;52.512;13.460;2024-02-21T11:47:18;101052.72;;;12.01;91.26
50550;BME280;36505;52.512;13.460;2024-02-21T11:49:47;101049.25;;;12.06;90.92
50550;BME280;36505;52.512;13.460;2024-02-21T11:52:22;101040.78;;;12.07;90.60
50550;BME280;36505;52.512;13.460;2024-02-21T11:54:51;101036.22;;;12.13;90.14
50550;BME280;36505;52.512;13.460;2024-02-21T11:57:17;101031.03;;;12.16;90.18
50550;BME280;36505;52.512;13.460;2024-02-21T11:59:44;101029.72;;;12.19;88.36
50550;BME280;36505;52.512;13.460;2024-02-21T12:02:12;101032.78;;;12.22;88.99
50550;BME280;36505;52.512;13.460;2024-02-21T12:04:37;101036.22;;;12.30;88.58
50550;BME280;36505;52.512;13.460;2024-02-21T12:07:03;101033.81;;;12.33;88.45
50550;BME280;36505;52.512;13.460;2024-02-21T12:09:29;101023.91;;;12.32;87.22
50550;BME280;36505;52.512;13.460;2024-02-21T12:12:02;101025.41;;;12.40;88.44
50550;BME280;36505;52.512;13.460;2024-02-21T12:14:32;101015.56;;;12.44;88.68
50550;BME280;36505;52.512;13.460;2024-02-21T12:16:58;101003.03;;;12.48;88.28
50550;BME280;36505;52.512;13.460;2024-02-21T12:19:24;100995.94;;;12.52;88.36
50550;BME280;36505;52.512;13.460;2024-02-21T12:21:49;100999.84;;;12.56;88.25
50550;BME280;36505;52.512;13.460;2024-02-21T12:26:49;100988.66;;;12.62;87.25
50550;BME280;36505;52.512;13.460;2024-02-21T12:29:15;100986.25;;;12.66;87.89
50550;BME280;36505;52.512;13.460;2024-02-21T12:31:40;100976.03;;;12.61;87.15
50550;BME280;36505;52.512;13.460;2024-02-21T12:34:06;100986.84;;;12.68;87.59
50550;BME280;36505;52.512;13.460;2024-02-21T12:36:32;100978.69;;;12.73;87.71
50550;BME280;36505;52.512;13.460;2024-02-21T12:38:58;100979.34;;;12.80;88.38
50550;BME280;36505;52.512;13.460;2024-02-21T12:41:24;100971.66;;;12.82;88.63
50550;BME280;36505;52.512;13.460;2024-02-21T12:43:51;100965.34;;;12.82;87.80
50550;BME280;36505;52.512;13.460;2024-02-21T12:46:16;100956.50;;;12.80;87.32
50550;BME280;36505;52.512;13.460;2024-02-21T12:48:41;100969.41;;;12.79;86.52